sensor_id;sensor_type;location;lat;lon;timestamp;temperature;humidity
36280;DHT22;22317;47.936;12.742;2022-10-16T00:01:28;11.70;64.60
36280;DHT22;22317;47.936;12.742;2022-10-16T00:03:56;11.70;65.00
36280;DHT22;22317;47.936;12.742;2022-10-16T00:06:22;11.70;65.00
36280;DHT22;22317;47.936;12.742;2022-10-16T00:08:48;11.70;65.00
36280;DHT22;22317;47.936;12.742;2022-10-16T00:11:17;11.70;64.70
36280;DHT22;22317;47.936;12.742;2022-10-16T00:13:45;11.70;65.20
36280;DHT22;22317;47.936;12.742;2022-10-16T00:16:12;11.70;65.10
36280;DHT22;22317;47.936;12.742;2022-10-16T00:18:38;11.60;65.00
36280;DHT22;22317;47.936;12.742;2022-10-16T00:21:06;11.60;64.60
36280;DHT22;22317;47.936;12.742;2022-10-16T00:23:32;13.10;66.00
36280;DHT22;22317;47.936;12.742;2022-10-16T00:26:00;11.60;65.00
36280;DHT22;22317;47.936;12.742;2022-10-16T00:28:27;11.60;65.00
36280;DHT22;22317;47.936;12.742;2022-10-16T00:30:53;11.60;64.50
36280;DHT22;22317;47.936;12.742;2022-10-16T00:33:19;11.50;65.00
36280;DHT22;22317;47.936;12.742;2022-10-16T00:35:45;11.50;65.10
36280;DHT22;22317;47.936;12.742;2022-10-16T00:38:11;11.50;65.10
36280;DHT22;22317;47.936;12.742;2022-10-16T00:40:37;11.50;64.60
36280;DHT22;22317;47.936;12.742;2022-10-16T00:43:14;11.50;65.10
36280;DHT22;22317;47.936;12.742;2022-10-16T00:45:50;11.50;65.10
36280;DHT22;22317;47.936;12.742;2022-10-16T00:48:21;11.50;65.20
36280;DHT22;22317;47.936;12.742;2022-10-16T00:50:47;11.40;64.50
36280;DHT22;22317;47.936;12.742;2022-10-16T00:53:14;11.40;65.00
36280;DHT22;22317;47.936;12.742;2022-10-16T00:55:40;11.30;65.00
36280;DHT22;22317;47.936;12.742;2022-10-16T00:58:06;11.30;65.20
36280;DHT22;22317;47.936;12.742;2022-10-16T01:00:32;11.30;64.70
36280;DHT22;22317;47.936;12.742;2022-10-16T01:03:00;11.20;65.20
36280;DHT22;22317;47.936;12.742;2022-10-16T01:05:32;11.20;64.70
36280;DHT22;22317;47.936;12.742;2022-10-16T01:08:08;11.20;65.10
36280;DHT22;22317;47.936;12.742;2022-10-16T01:13:05;11.10;65.20
36280;DHT22;22317;47.936;12.742;2022-10-16T01:24:08;11.00;65.40
36280;DHT22;22317;47.936;12.742;2022-10-16T01:29:56;10.90;65.40
36280;DHT22;22317;47.936;12.742;2022-10-16T01:32:52;10.90;65.00
36280;DHT22;22317;47.936;12.742;2022-10-16T01:38:03;10.90;65.40
36280;DHT22;22317;47.936;12.742;2022-10-16T01:40:32;10.80;64.90
36280;DHT22;22317;47.936;12.742;2022-10-16T01:43:20;10.80;64.90
36280;DHT22;22317;47.936;12.742;2022-10-16T01:45:48;10.70;65.40
36280;DHT22;22317;47.936;12.742;2022-10-16T01:48:17;10.70;65.40
36280;DHT22;22317;47.936;12.742;2022-10-16T01:50:48;10.70;65.10
36280;DHT22;22317;47.936;12.742;2022-10-16T01:53:16;10.70;65.80
36280;DHT22;22317;47.936;12.742;2022-10-16T01:55:44;10.70;65.80
36280;DHT22;22317;47.936;12.742;2022-10-16T01:58:12;10.60;65.90
36280;DHT22;22317;47.936;12.742;2022-10-16T02:00:43;10.60;65.40
36280;DHT22;22317;47.936;12.742;2022-10-16T02:03:11;10.60;66.00
36280;DHT22;22317;47.936;12.742;2022-10-16T02:05:58;10.60;66.00
36280;DHT22;22317;47.936;12.742;2022-10-16T02:08:25;10.60;66.10
36280;DHT22;22317;47.936;12.742;2022-10-16T02:10:55;10.60;65.50
36280;DHT22;22317;47.936;12.742;2022-10-16T02:13:33;10.60;66.00
36280;DHT22;22317;47.936;12.742;2022-10-16T02:15:59;10.60;66.00
36280;DHT22;22317;47.936;12.742;2022-10-16T02:18:26;10.60;66.10
36280;DHT22;22317;47.936;12.742;2022-10-16T02:21:02;10.50;65.40
36280;DHT22;22317;47.936;12.742;2022-10-16T02:26:07;10.50;65.80
36280;DHT22;22317;47.936;12.742;2022-10-16T02:28:55;10.50;66.00
36280;DHT22;22317;47.936;12.742;2022-10-16T02:31:27;10.50;66.30
36280;DHT22;22317;47.936;12.742;2022-10-16T02:33:57;10.50;66.10
36280;DHT22;22317;47.936;12.742;2022-10-16T02:36:23;10.40;66.00
36280;DHT22;22317;47.936;12.742;2022-10-16T02:38:50;10.40;66.10
36280;DHT22;22317;47.936;12.742;2022-10-16T02:41:17;10.40;66.10
36280;DHT22;22317;47.936;12.742;2022-10-16T02:43:43;10.40;66.20
36280;DHT22;22317;47.936;12.742;2022-10-16T02:46:09;10.20;66.10
36280;DHT22;22317;47.936;12.742;2022-10-16T02:48:35;10.40;67.00
36280;DHT22;22317;47.936;12.742;2022-10-16T02:51:01;10.30;66.50
36280;DHT22;22317;47.936;12.742;2022-10-16T02:53:27;10.30;66.70
36280;DHT22;22317;47.936;12.742;2022-10-16T02:55:52;10.30;67.00
36280;DHT22;22317;47.936;12.742;2022-10-16T02:58:18;10.30;67.30
36280;DHT22;22317;47.936;12.742;2022-10-16T03:00:44;10.50;67.90
36280;DHT22;22317;47.936;12.742;2022-10-16T03:03:09;10.20;67.90
36280;DHT22;22317;47.936;12.742;2022-10-16T03:05:35;10.20;67.60
36280;DHT22;22317;47.936;12.742;2022-10-16T03:08:01;9.90;66.90
36280;DHT22;22317;47.936;12.742;2022-10-16T03:10:27;10.30;68.40
36280;DHT22;22317;47.936;12.742;2022-10-16T03:12:53;10.30;67.80
36280;DHT22;22317;47.936;12.742;2022-10-16T03:15:18;10.30;67.90
36280;DHT22;22317;47.936;12.742;2022-10-16T03:17:44;10.50;69.90
36280;DHT22;22317;47.936;12.742;2022-10-16T03:20:10;10.30;69.10
36280;DHT22;22317;47.936;12.742;2022-10-16T03:22:36;10.40;69.50
36280;DHT22;22317;47.936;12.742;2022-10-16T03:25:02;10.30;68.70
36280;DHT22;22317;47.936;12.742;2022-10-16T03:27:27;10.30;68.90
36280;DHT22;22317;47.936;12.742;2022-10-16T03:29:53;10.20;78.10
36280;DHT22;22317;47.936;12.742;2022-10-16T03:32:19;10.30;69.10
36280;DHT22;22317;47.936;12.742;2022-10-16T03:34:45;10.40;69.80
36280;DHT22;22317;47.936;12.742;2022-10-16T03:37:11;10.40;70.70
36280;DHT22;22317;47.936;12.742;2022-10-16T03:39:37;10.20;69.90
36280;DHT22;22317;47.936;12.742;2022-10-16T03:42:03;10.40;71.50
36280;DHT22;22317;47.936;12.742;2022-10-16T03:44:29;10.50;71.60
36280;DHT22;22317;47.936;12.742;2022-10-16T03:46:54;10.80;71.70
36280;DHT22;22317;47.936;12.742;2022-10-16T03:49:20;10.60;72.50
36280;DHT22;22317;47.936;12.742;2022-10-16T03:51:46;10.20;72.60
36280;DHT22;22317;47.936;12.742;2022-10-16T03:54:11;10.40;71.90
36280;DHT22;22317;47.936;12.742;2022-10-16T03:56:38;10.40;72.50
36280;DHT22;22317;47.936;12.742;2022-10-16T03:59:04;10.40;72.80
36280;DHT22;22317;47.936;12.742;2022-10-16T04:01:29;10.40;74.30
36280;DHT22;22317;47.936;12.742;2022-10-16T04:03:55;10.30;74.40
36280;DHT22;22317;47.936;12.742;2022-10-16T04:06:21;10.40;74.90
36280;DHT22;22317;47.936;12.742;2022-10-16T04:08:46;10.50;74.80
36280;DHT22;22317;47.936;12.742;2022-10-16T04:11:12;10.20;75.40
36280;DHT22;22317;47.936;12.742;2022-10-16T04:13:38;10.20;76.30
36280;DHT22;22317;47.936;12.742;2022-10-16T04:16:04;10.40;74.90
36280;DHT22;22317;47.936;12.742;2022-10-16T04:18:30;10.20;72.80
36280;DHT22;22317;47.936;12.742;2022-10-16T04:20:56;10.30;70.80
36280;DHT22;22317;47.936;12.742;2022-10-16T04:23:22;10.30;71.80
36280;DHT22;22317;47.936;12.742;2022-10-16T04:25:48;10.20;71.50
36280;DHT22;22317;47.936;12.742;2022-10-16T04:28:14;10.20;72.60
36280;DHT22;22317;47.936;12.742;2022-10-16T04:30:40;9.90;70.90
36280;DHT22;22317;47.936;12.742;2022-10-16T04:33:08;10.40;69.30
36280;DHT22;22317;47.936;12.742;2022-10-16T04:35:33;9.90;71.30
36280;DHT22;22317;47.936;12.742;2022-10-16T04:37:59;10.10;70.50
36280;DHT22;22317;47.936;12.742;2022-10-16T04:40:25;10.10;71.40
36280;DHT22;22317;47.936;12.742;2022-10-16T04:42:51;10.00;72.60
36280;DHT22;22317;47.936;12.742;2022-10-16T04:45:16;10.00;68.40
36280;DHT22;22317;47.936;12.742;2022-10-16T04:47:42;9.80;65.80
36280;DHT22;22317;47.936;12.742;2022-10-16T04:50:08;9.80;65.90
36280;DHT22;22317;47.936;12.742;2022-10-16T04:52:34;9.80;66.40
36280;DHT22;22317;47.936;12.742;2022-10-16T04:55:00;9.80;66.40
36280;DHT22;22317;47.936;12.742;2022-10-16T04:57:29;9.80;66.40
36280;DHT22;22317;47.936;12.742;2022-10-16T04:59:56;9.80;65.80
36280;DHT22;22317;47.936;12.742;2022-10-16T05:04:48;9.80;65.80
36280;DHT22;22317;47.936;12.742;2022-10-16T05:07:14;9.70;66.30
36280;DHT22;22317;47.936;12.742;2022-10-16T05:09:40;9.70;66.20
36280;DHT22;22317;47.936;12.742;2022-10-16T05:12:06;9.70;65.80
36280;DHT22;22317;47.936;12.742;2022-10-16T05:14:31;9.70;66.30
36280;DHT22;22317;47.936;12.742;2022-10-16T05:16:57;9.60;66.20
36280;DHT22;22317;47.936;12.742;2022-10-16T05:19:24;9.60;66.30
36280;DHT22;22317;47.936;12.742;2022-10-16T05:21:50;9.60;65.90
36280;DHT22;22317;47.936;12.742;2022-10-16T05:24:16;9.60;66.30
36280;DHT22;22317;47.936;12.742;2022-10-16T05:26:42;9.60;66.30
36280;DHT22;22317;47.936;12.742;2022-10-16T05:29:07;9.60;66.30
36280;DHT22;22317;47.936;12.742;2022-10-16T05:31:34;9.50;65.80
36280;DHT22;22317;47.936;12.742;2022-10-16T05:34:00;9.50;66.30
36280;DHT22;22317;47.936;12.742;2022-10-16T05:36:26;9.50;66.20
36280;DHT22;22317;47.936;12.742;2022-10-16T05:38:51;9.50;66.20
36280;DHT22;22317;47.936;12.742;2022-10-16T05:41:17;9.40;65.70
36280;DHT22;22317;47.936;12.742;2022-10-16T05:43:47;9.40;66.30
36280;DHT22;22317;47.936;12.742;2022-10-16T05:46:14;9.40;66.30
36280;DHT22;22317;47.936;12.742;2022-10-16T05:48:39;9.40;66.40
36280;DHT22;22317;47.936;12.742;2022-10-16T05:51:07;9.30;65.90
36280;DHT22;22317;47.936;12.742;2022-10-16T05:53:35;9.40;66.40
36280;DHT22;22317;47.936;12.742;2022-10-16T05:56:01;9.40;66.30
36280;DHT22;22317;47.936;12.742;2022-10-16T05:58:33;9.30;66.20
36280;DHT22;22317;47.936;12.742;2022-10-16T06:01:01;9.40;66.00
36280;DHT22;22317;47.936;12.742;2022-10-16T06:05:54;9.30;66.00
36280;DHT22;22317;47.936;12.742;2022-10-16T06:08:21;9.40;66.70
36280;DHT22;22317;47.936;12.742;2022-10-16T06:10:48;9.40;66.20
36280;DHT22;22317;47.936;12.742;2022-10-16T06:13:15;9.40;66.80
36280;DHT22;22317;47.936;12.742;2022-10-16T06:15:42;9.40;66.60
36280;DHT22;22317;47.936;12.742;2022-10-16T06:18:11;9.40;66.60
36280;DHT22;22317;47.936;12.742;2022-10-16T06:20:37;9.40;66.40
36280;DHT22;22317;47.936;12.742;2022-10-16T06:23:03;9.40;66.90
36280;DHT22;22317;47.936;12.742;2022-10-16T06:25:30;9.60;66.60
36280;DHT22;22317;47.936;12.742;2022-10-16T06:27:56;9.60;67.20
36280;DHT22;22317;47.936;12.742;2022-10-16T06:30:22;9.70;66.60
36280;DHT22;22317;47.936;12.742;2022-10-16T06:32:48;9.70;67.20
36280;DHT22;22317;47.936;12.742;2022-10-16T06:35:14;9.80;67.20
36280;DHT22;22317;47.936;12.742;2022-10-16T06:37:39;9.90;67.30
36280;DHT22;22317;47.936;12.742;2022-10-16T06:40:05;10.10;66.80
36280;DHT22;22317;47.936;12.742;2022-10-16T06:42:31;10.10;67.40
36280;DHT22;22317;47.936;12.742;2022-10-16T06:44:58;10.30;67.50
36280;DHT22;22317;47.936;12.742;2022-10-16T06:47:24;10.50;67.50
36280;DHT22;22317;47.936;12.742;2022-10-16T06:49:49;10.70;66.70
36280;DHT22;22317;47.936;12.742;2022-10-16T06:52:15;10.80;67.30
36280;DHT22;22317;47.936;12.742;2022-10-16T06:54:41;10.90;67.20
36280;DHT22;22317;47.936;12.742;2022-10-16T06:57:06;11.00;66.90
36280;DHT22;22317;47.936;12.742;2022-10-16T06:59:33;11.10;67.00
36280;DHT22;22317;47.936;12.742;2022-10-16T07:01:59;11.30;66.70
36280;DHT22;22317;47.936;12.742;2022-10-16T07:04:24;11.40;67.20
36280;DHT22;22317;47.936;12.742;2022-10-16T07:06:50;11.50;66.80
36280;DHT22;22317;47.936;12.742;2022-10-16T07:09:17;11.50;66.40
36280;DHT22;22317;47.936;12.742;2022-10-16T07:11:43;11.60;65.90
36280;DHT22;22317;47.936;12.742;2022-10-16T07:14:17;11.70;66.40
36280;DHT22;22317;47.936;12.742;2022-10-16T07:16:43;11.70;66.20
36280;DHT22;22317;47.936;12.742;2022-10-16T07:19:09;11.80;66.00
36280;DHT22;22317;47.936;12.742;2022-10-16T07:21:37;11.90;65.70
36280;DHT22;22317;47.936;12.742;2022-10-16T07:24:06;12.00;66.60
36280;DHT22;22317;47.936;12.742;2022-10-16T07:26:35;12.20;66.80
36280;DHT22;22317;47.936;12.742;2022-10-16T07:29:01;12.40;66.70
36280;DHT22;22317;47.936;12.742;2022-10-16T07:31:27;12.60;65.70
36280;DHT22;22317;47.936;12.742;2022-10-16T07:33:53;12.70;66.70
36280;DHT22;22317;47.936;12.742;2022-10-16T07:36:20;12.80;65.80
36280;DHT22;22317;47.936;12.742;2022-10-16T07:38:46;12.90;65.90
36280;DHT22;22317;47.936;12.742;2022-10-16T07:41:14;13.10;65.60
36280;DHT22;22317;47.936;12.742;2022-10-16T07:43:44;13.30;66.40
36280;DHT22;22317;47.936;12.742;2022-10-16T07:46:10;13.60;66.50
36280;DHT22;22317;47.936;12.742;2022-10-16T07:48:36;10.90;64.40
36280;DHT22;22317;47.936;12.742;2022-10-16T07:51:06;14.20;65.20
36280;DHT22;22317;47.936;12.742;2022-10-16T07:53:33;14.30;65.70
36280;DHT22;22317;47.936;12.742;2022-10-16T07:56:00;14.50;65.60
36280;DHT22;22317;47.936;12.742;2022-10-16T07:58:27;14.70;65.30
36280;DHT22;22317;47.936;12.742;2022-10-16T08:00:53;15.00;65.00
36280;DHT22;22317;47.936;12.742;2022-10-16T08:03:19;15.20;64.10
36280;DHT22;22317;47.936;12.742;2022-10-16T08:05:45;15.40;64.00
36280;DHT22;22317;47.936;12.742;2022-10-16T08:08:14;15.60;63.60
36280;DHT22;22317;47.936;12.742;2022-10-16T08:10:41;15.80;62.40
36280;DHT22;22317;47.936;12.742;2022-10-16T08:13:07;15.80;62.20
36280;DHT22;22317;47.936;12.742;2022-10-16T08:15:33;15.90;62.40
36280;DHT22;22317;47.936;12.742;2022-10-16T08:18:00;16.00;62.00
36280;DHT22;22317;47.936;12.742;2022-10-16T08:20:27;16.10;61.70
36280;DHT22;22317;47.936;12.742;2022-10-16T08:22:54;16.20;61.60
36280;DHT22;22317;47.936;12.742;2022-10-16T08:25:21;16.30;61.30
36280;DHT22;22317;47.936;12.742;2022-10-16T08:27:47;16.40;61.10
36280;DHT22;22317;47.936;12.742;2022-10-16T08:30:13;16.50;61.00
36280;DHT22;22317;47.936;12.742;2022-10-16T08:32:40;16.70;60.80
36280;DHT22;22317;47.936;12.742;2022-10-16T08:35:08;16.80;60.00
36280;DHT22;22317;47.936;12.742;2022-10-16T08:37:38;16.90;59.60
36280;DHT22;22317;47.936;12.742;2022-10-16T08:40:06;17.00;59.30
36280;DHT22;22317;47.936;12.742;2022-10-16T08:48:43;17.30;58.70
36280;DHT22;22317;47.936;12.742;2022-10-16T08:51:14;17.40;58.70
36280;DHT22;22317;47.936;12.742;2022-10-16T08:53:49;17.60;58.40
36280;DHT22;22317;47.936;12.742;2022-10-16T08:56:18;17.70;58.00
36280;DHT22;22317;47.936;12.742;2022-10-16T08:58:46;17.70;57.80
36280;DHT22;22317;47.936;12.742;2022-10-16T09:01:14;17.90;57.10
36280;DHT22;22317;47.936;12.742;2022-10-16T09:06:57;18.10;56.60
36280;DHT22;22317;47.936;12.742;2022-10-16T09:12:12;18.40;56.30
36280;DHT22;22317;47.936;12.742;2022-10-16T09:15:13;18.60;56.00
36280;DHT22;22317;47.936;12.742;2022-10-16T09:21:31;18.90;54.90
36280;DHT22;22317;47.936;12.742;2022-10-16T09:24:10;19.10;54.60
36280;DHT22;22317;47.936;12.742;2022-10-16T09:26:36;19.30;54.70
36280;DHT22;22317;47.936;12.742;2022-10-16T09:29:03;19.50;54.60
36280;DHT22;22317;47.936;12.742;2022-10-16T09:31:28;19.70;53.10
36280;DHT22;22317;47.936;12.742;2022-10-16T09:33:58;19.80;53.80
36280;DHT22;22317;47.936;12.742;2022-10-16T09:36:26;19.90;53.30
36280;DHT22;22317;47.936;12.742;2022-10-16T09:39:09;20.00;53.20
36280;DHT22;22317;47.936;12.742;2022-10-16T09:41:43;20.20;52.70
36280;DHT22;22317;47.936;12.742;2022-10-16T09:47:18;20.60;60.30
36280;DHT22;22317;47.936;12.742;2022-10-16T09:49:55;20.80;63.50
36280;DHT22;22317;47.936;12.742;2022-10-16T09:52:23;20.80;51.40
36280;DHT22;22317;47.936;12.742;2022-10-16T09:54:51;21.00;51.40
36280;DHT22;22317;47.936;12.742;2022-10-16T09:57:17;21.10;50.80
36280;DHT22;22317;47.936;12.742;2022-10-16T09:59:52;21.40;50.00
36280;DHT22;22317;47.936;12.742;2022-10-16T10:02:20;21.40;50.10
36280;DHT22;22317;47.936;12.742;2022-10-16T10:04:53;21.50;50.10
36280;DHT22;22317;47.936;12.742;2022-10-16T10:07:27;21.60;49.70
36280;DHT22;22317;47.936;12.742;2022-10-16T10:09:56;21.80;49.30
36280;DHT22;22317;47.936;12.742;2022-10-16T10:12:27;21.80;49.30
36280;DHT22;22317;47.936;12.742;2022-10-16T10:14:58;22.00;49.20
36280;DHT22;22317;47.936;12.742;2022-10-16T10:17:29;22.20;49.20
36280;DHT22;22317;47.936;12.742;2022-10-16T10:20:01;22.50;48.50
36280;DHT22;22317;47.936;12.742;2022-10-16T10:22:41;22.50;48.40
36280;DHT22;22317;47.936;12.742;2022-10-16T10:38:58;23.60;46.70
36280;DHT22;22317;47.936;12.742;2022-10-16T10:51:13;24.50;44.50
36280;DHT22;22317;47.936;12.742;2022-10-16T11:01:09;25.40;42.40
36280;DHT22;22317;47.936;12.742;2022-10-16T11:06:36;26.00;42.60
36280;DHT22;22317;47.936;12.742;2022-10-16T11:09:21;26.10;42.00
36280;DHT22;22317;47.936;12.742;2022-10-16T11:15:02;26.40;40.20
36280;DHT22;22317;47.936;12.742;2022-10-16T11:17:38;26.60;40.50
36280;DHT22;22317;47.936;12.742;2022-10-16T11:20:23;26.80;39.90
36280;DHT22;22317;47.936;12.742;2022-10-16T11:22:54;27.00;39.50
36280;DHT22;22317;47.936;12.742;2022-10-16T11:25:28;27.20;39.60
36280;DHT22;22317;47.936;12.742;2022-10-16T11:30:25;27.50;38.90
36280;DHT22;22317;47.936;12.742;2022-10-16T11:40:43;28.60;37.90
36280;DHT22;22317;47.936;12.742;2022-10-16T11:43:14;28.90;37.60
36280;DHT22;22317;47.936;12.742;2022-10-16T11:45:49;29.20;37.30
36280;DHT22;22317;47.936;12.742;2022-10-16T11:48:43;29.80;36.70
36280;DHT22;22317;47.936;12.742;2022-10-16T11:56:51;32.00;34.90
36280;DHT22;22317;47.936;12.742;2022-10-16T11:59:42;32.90;33.80
36280;DHT22;22317;47.936;12.742;2022-10-16T12:08:14;35.30;30.10
36280;DHT22;22317;47.936;12.742;2022-10-16T12:10:45;36.20;29.20
36280;DHT22;22317;47.936;12.742;2022-10-16T12:13:32;36.80;29.10
36280;DHT22;22317;47.936;12.742;2022-10-16T12:18:45;38.10;26.80
36280;DHT22;22317;47.936;12.742;2022-10-16T12:21:12;38.70;26.50
36280;DHT22;22317;47.936;12.742;2022-10-16T12:23:51;39.20;26.10
36280;DHT22;22317;47.936;12.742;2022-10-16T12:26:37;39.60;24.80
36280;DHT22;22317;47.936;12.742;2022-10-16T12:29:41;40.10;24.90
36280;DHT22;22317;47.936;12.742;2022-10-16T12:32:34;40.70;24.60
36280;DHT22;22317;47.936;12.742;2022-10-16T12:35:01;41.10;23.90
36280;DHT22;22317;47.936;12.742;2022-10-16T12:37:37;41.50;24.00
36280;DHT22;22317;47.936;12.742;2022-10-16T12:40:36;41.90;23.30
36280;DHT22;22317;47.936;12.742;2022-10-16T12:45:46;42.80;22.30
36280;DHT22;22317;47.936;12.742;2022-10-16T12:48:22;43.10;22.30
36280;DHT22;22317;47.936;12.742;2022-10-16T12:50:48;43.50;21.50
36280;DHT22;22317;47.936;12.742;2022-10-16T12:53:19;43.90;21.60
36280;DHT22;22317;47.936;12.742;2022-10-16T13:07:41;45.70;19.60
36280;DHT22;22317;47.936;12.742;2022-10-16T13:12:44;46.60;19.70
36280;DHT22;22317;47.936;12.742;2022-10-16T13:15:29;46.90;19.30
36280;DHT22;22317;47.936;12.742;2022-10-16T13:18:13;47.40;18.60
36280;DHT22;22317;47.936;12.742;2022-10-16T13:20:56;47.90;18.70
36280;DHT22;22317;47.936;12.742;2022-10-16T13:23:36;48.20;17.40
36280;DHT22;22317;47.936;12.742;2022-10-16T13:28:45;48.90;17.40
36280;DHT22;22317;47.936;12.742;2022-10-16T13:31:19;49.20;17.40
36280;DHT22;22317;47.936;12.742;2022-10-16T13:33:53;49.40;16.50
36280;DHT22;22317;47.936;12.742;2022-10-16T13:36:22;49.70;16.50
36280;DHT22;22317;47.936;12.742;2022-10-16T13:41:43;50.10;15.80
36280;DHT22;22317;47.936;12.742;2022-10-16T13:46:44;50.70;15.10
36280;DHT22;22317;47.936;12.742;2022-10-16T13:51:56;51.30;14.90
36280;DHT22;22317;47.936;12.742;2022-10-16T13:54:23;51.60;14.90
36280;DHT22;22317;47.936;12.742;2022-10-16T13:56:49;51.80;14.90
36280;DHT22;22317;47.936;12.742;2022-10-16T13:59:33;52.00;14.80
36280;DHT22;22317;47.936;12.742;2022-10-16T14:02:00;52.20;14.60
36280;DHT22;22317;47.936;12.742;2022-10-16T14:04:32;52.40;14.80
36280;DHT22;22317;47.936;12.742;2022-10-16T14:06:58;52.50;14.50
36280;DHT22;22317;47.936;12.742;2022-10-16T14:09:29;52.70;14.40
36280;DHT22;22317;47.936;12.742;2022-10-16T14:12:08;52.70;14.10
36280;DHT22;22317;47.936;12.742;2022-10-16T14:14:41;52.70;13.80
36280;DHT22;22317;47.936;12.742;2022-10-16T14:17:19;52.60;13.80
36280;DHT22;22317;47.936;12.742;2022-10-16T14:19:50;52.70;14.00
36280;DHT22;22317;47.936;12.742;2022-10-16T14:22:39;52.70;14.10
36280;DHT22;22317;47.936;12.742;2022-10-16T14:28:22;53.10;14.30
36280;DHT22;22317;47.936;12.742;2022-10-16T14:30:57;53.20;14.40
36280;DHT22;22317;47.936;12.742;2022-10-16T14:38:30;53.40;14.20
36280;DHT22;22317;47.936;12.742;2022-10-16T14:40:58;53.40;14.40
36280;DHT22;22317;47.936;12.742;2022-10-16T14:43:39;53.50;14.20
36280;DHT22;22317;47.936;12.742;2022-10-16T14:46:16;53.60;13.90
36280;DHT22;22317;47.936;12.742;2022-10-16T14:49:00;53.80;13.90
36280;DHT22;22317;47.936;12.742;2022-10-16T14:51:26;53.80;13.80
36280;DHT22;22317;47.936;12.742;2022-10-16T14:53:52;53.60;13.90
36280;DHT22;22317;47.936;12.742;2022-10-16T14:56:24;53.60;13.80
36280;DHT22;22317;47.936;12.742;2022-10-16T14:58:51;53.50;13.70
36280;DHT22;22317;47.936;12.742;2022-10-16T15:01:18;53.40;13.70
36280;DHT22;22317;47.936;12.742;2022-10-16T15:03:44;53.40;13.50
36280;DHT22;22317;47.936;12.742;2022-10-16T15:06:14;53.30;13.50
36280;DHT22;22317;47.936;12.742;2022-10-16T15:08:41;53.20;13.40
36280;DHT22;22317;47.936;12.742;2022-10-16T15:11:25;53.10;13.30
36280;DHT22;22317;47.936;12.742;2022-10-16T15:13:51;52.90;13.20
36280;DHT22;22317;47.936;12.742;2022-10-16T15:16:19;52.80;13.40
36280;DHT22;22317;47.936;12.742;2022-10-16T15:18:45;52.70;13.30
36280;DHT22;22317;47.936;12.742;2022-10-16T15:21:31;52.50;13.20
36280;DHT22;22317;47.936;12.742;2022-10-16T15:23:59;52.30;13.20
36280;DHT22;22317;47.936;12.742;2022-10-16T15:26:26;52.00;13.40
36280;DHT22;22317;47.936;12.742;2022-10-16T15:28:52;51.70;13.40
36280;DHT22;22317;47.936;12.742;2022-10-16T15:31:18;50.60;12.80
36280;DHT22;22317;47.936;12.742;2022-10-16T15:33:45;49.70;13.40
36280;DHT22;22317;47.936;12.742;2022-10-16T15:36:16;47.80;13.70
36280;DHT22;22317;47.936;12.742;2022-10-16T15:41:09;43.40;14.60
36280;DHT22;22317;47.936;12.742;2022-10-16T15:43:35;42.40;15.60
36280;DHT22;22317;47.936;12.742;2022-10-16T15:46:06;40.90;16.40
36280;DHT22;22317;47.936;12.742;2022-10-16T15:48:33;38.00;17.10
36280;DHT22;22317;47.936;12.742;2022-10-16T15:51:00;36.80;17.90
36280;DHT22;22317;47.936;12.742;2022-10-16T16:00:45;32.40;20.70
36280;DHT22;22317;47.936;12.742;2022-10-16T16:08:06;29.70;22.90
36280;DHT22;22317;47.936;12.742;2022-10-16T16:10:31;28.90;23.70
36280;DHT22;22317;47.936;12.742;2022-10-16T16:12:57;28.20;24.50
36280;DHT22;22317;47.936;12.742;2022-10-16T16:20:16;26.20;26.20
36280;DHT22;22317;47.936;12.742;2022-10-16T16:22:42;25.70;26.80
36280;DHT22;22317;47.936;12.742;2022-10-16T16:25:08;25.20;27.40
36280;DHT22;22317;47.936;12.742;2022-10-16T16:27:34;24.60;27.90
36280;DHT22;22317;47.936;12.742;2022-10-16T16:30:01;24.10;28.50
36280;DHT22;22317;47.936;12.742;2022-10-16T16:34:55;23.20;29.60
36280;DHT22;22317;47.936;12.742;2022-10-16T16:37:20;22.70;30.10
36280;DHT22;22317;47.936;12.742;2022-10-16T16:39:46;22.20;30.70
36280;DHT22;22317;47.936;12.742;2022-10-16T16:44:38;21.40;32.10
36280;DHT22;22317;47.936;12.742;2022-10-16T16:47:04;21.00;32.80
36280;DHT22;22317;47.936;12.742;2022-10-16T16:49:31;20.70;33.50
36280;DHT22;22317;47.936;12.742;2022-10-16T16:51:57;20.40;34.20
36280;DHT22;22317;47.936;12.742;2022-10-16T16:59:18;19.70;36.00
36280;DHT22;22317;47.936;12.742;2022-10-16T17:01:45;19.50;36.50
36280;DHT22;22317;47.936;12.742;2022-10-16T17:04:11;19.20;36.90
36280;DHT22;22317;47.936;12.742;2022-10-16T17:06:38;19.00;37.40
36280;DHT22;22317;47.936;12.742;2022-10-16T17:09:06;18.80;38.00
36280;DHT22;22317;47.936;12.742;2022-10-16T17:11:33;18.60;38.40
36280;DHT22;22317;47.936;12.742;2022-10-16T17:14:00;18.40;39.00
36280;DHT22;22317;47.936;12.742;2022-10-16T17:16:31;18.20;39.50
36280;DHT22;22317;47.936;12.742;2022-10-16T17:19:02;18.00;40.00
36280;DHT22;22317;47.936;12.742;2022-10-16T17:21:28;17.80;40.40
36280;DHT22;22317;47.936;12.742;2022-10-16T17:26:22;17.50;41.40
36280;DHT22;22317;47.936;12.742;2022-10-16T17:28:53;17.30;41.80
36280;DHT22;22317;47.936;12.742;2022-10-16T17:31:22;17.20;42.10
36280;DHT22;22317;47.936;12.742;2022-10-16T17:36:17;16.90;42.70
36280;DHT22;22317;47.936;12.742;2022-10-16T17:38:43;16.80;43.00
36280;DHT22;22317;47.936;12.742;2022-10-16T17:41:21;16.70;43.50
36280;DHT22;22317;47.936;12.742;2022-10-16T17:46:15;16.40;44.10
36280;DHT22;22317;47.936;12.742;2022-10-16T17:48:43;16.30;44.50
36280;DHT22;22317;47.936;12.742;2022-10-16T17:51:11;16.20;44.80
36280;DHT22;22317;47.936;12.742;2022-10-16T17:53:38;16.10;45.10
36280;DHT22;22317;47.936;12.742;2022-10-16T17:58:29;15.80;45.60
36280;DHT22;22317;47.936;12.742;2022-10-16T18:00:55;15.80;45.90
36280;DHT22;22317;47.936;12.742;2022-10-16T18:03:21;15.60;46.20
36280;DHT22;22317;47.936;12.742;2022-10-16T18:10:46;15.40;47.00
36280;DHT22;22317;47.936;12.742;2022-10-16T18:13:13;15.50;47.90
36280;DHT22;22317;47.936;12.742;2022-10-16T18:15:39;15.40;47.90
36280;DHT22;22317;47.936;12.742;2022-10-16T18:18:04;15.30;48.20
36280;DHT22;22317;47.936;12.742;2022-10-16T18:20:31;15.20;48.00
36280;DHT22;22317;47.936;12.742;2022-10-16T18:22:57;15.10;48.60
36280;DHT22;22317;47.936;12.742;2022-10-16T18:25:22;15.10;48.80
36280;DHT22;22317;47.936;12.742;2022-10-16T18:27:48;15.00;48.90
36280;DHT22;22317;47.936;12.742;2022-10-16T18:30:14;14.80;48.70
36280;DHT22;22317;47.936;12.742;2022-10-16T18:32:39;14.80;49.30
36280;DHT22;22317;47.936;12.742;2022-10-16T18:35:05;14.80;49.60